createdAt,value
2019-06-08T00:00:05.693Z,97727.58
2019-06-08T00:02:32.538Z,97724.15
2019-06-08T00:04:59.441Z,97727.58
2019-06-08T00:07:26.210Z,97727.58
2019-06-08T00:09:53.021Z,97719.69
2019-06-08T00:12:21.210Z,97724.15
2019-06-08T00:14:48.134Z,97722.31
2019-06-08T00:17:31.426Z,97731.52
2019-06-08T00:19:43.570Z,97725.47
2019-06-08T00:22:10.356Z,97724.67
2019-06-08T00:24:37.188Z,97724.15
2019-06-08T00:27:03.990Z,97732.84
2019-06-08T00:29:30.774Z,97733.36
2019-06-08T00:31:57.563Z,97728.89
2019-06-08T00:34:24.866Z,97740.73
2019-06-08T00:36:52.003Z,97749.94
2019-06-08T00:39:18.940Z,97740.73
2019-06-08T00:41:45.828Z,97739.94
2019-06-08T00:44:12.758Z,97742.05
2019-06-08T00:46:39.625Z,97740.73
2019-06-08T00:49:06.460Z,97752.58
2019-06-08T00:51:33.270Z,97760.73
2019-06-08T00:54:00.156Z,97761.78
2019-06-08T00:56:27.107Z,97759.42
2019-06-08T00:58:54.015Z,97759.15
2019-06-08T01:01:23.331Z,97757.83
2019-06-08T01:03:49.480Z,97751.26
2019-06-08T01:06:16.591Z,97756.52
2019-06-08T01:08:43.477Z,97757.83
2019-06-08T01:11:10.288Z,97753.09
2019-06-08T01:13:37.166Z,97754.16
2019-06-08T01:16:04.009Z,97759.94
2019-06-08T01:18:30.812Z,97781.79
2019-06-08T01:20:57.660Z,97768.36
2019-06-08T01:23:25.554Z,97771.27
2019-06-08T01:25:52.575Z,97773.38
2019-06-08T01:28:19.959Z,97769.16
2019-06-08T01:30:46.909Z,97776.25
2019-06-08T01:33:14.202Z,97774.94
2019-06-08T01:35:41.015Z,97770.47
2019-06-08T01:38:07.833Z,97766.52
2019-06-08T01:40:34.658Z,97789.41
2019-06-08T01:43:01.516Z,97759.15
2019-06-08T01:45:33.002Z,97757.83
2019-06-08T01:47:59.896Z,97763.37
2019-06-08T01:50:26.789Z,97761.27
2019-06-08T01:52:53.701Z,97760.73
2019-06-08T01:55:20.520Z,97773.63
2019-06-08T01:57:47.320Z,97777.56
2019-06-08T02:00:35.255Z,97767.84
2019-06-08T02:02:42.835Z,97760.73
2019-06-08T02:05:09.702Z,97768.63
2019-06-08T02:07:36.620Z,97771.27
2019-06-08T02:10:03.491Z,97783.90
2019-06-08T02:12:31.149Z,97786.01
2019-06-08T02:14:58.217Z,97792.04
2019-06-08T02:17:25.167Z,97789.69
2019-06-08T02:19:52.034Z,97805.47
2019-06-08T02:22:18.880Z,97812.56
2019-06-08T02:24:45.745Z,97819.14
2019-06-08T02:27:12.641Z,97827.31
2019-06-08T02:29:39.944Z,97832.58
2019-06-08T02:32:06.927Z,97827.83
2019-06-08T02:34:35.977Z,97833.09
2019-06-08T02:37:02.297Z,97838.63
2019-06-08T02:39:30.368Z,97841.78
2019-06-08T02:41:57.387Z,97845.73
2019-06-08T02:44:24.209Z,97847.05
2019-06-08T02:46:51.092Z,97849.68
2019-06-08T02:49:17.914Z,97844.94
2019-06-08T02:51:44.750Z,97845.73
2019-06-08T02:54:11.561Z,97849.68
2019-06-08T02:56:39.266Z,97847.56
2019-06-08T02:59:06.875Z,97844.94
2019-06-08T03:01:33.804Z,97848.88
2019-06-08T03:04:02.049Z,97857.05
2019-06-08T03:06:30.365Z,97855.98
2019-06-08T03:08:57.375Z,97854.94
2019-06-08T03:11:24.177Z,97858.89
2019-06-08T03:13:50.986Z,97862.31
2019-06-08T03:16:17.823Z,97868.09
2019-06-08T03:18:44.710Z,97871.52
2019-06-08T03:21:11.566Z,97874.16
2019-06-08T03:23:39.381Z,97874.67
2019-06-08T03:26:07.069Z,97874.41
2019-06-08T03:28:35.593Z,97874.67
2019-06-08T03:31:02.461Z,97876.52
2019-06-08T03:33:29.358Z,97868.09
2019-06-08T03:35:58.090Z,97875.20
2019-06-08T03:38:24.743Z,97876.52
2019-06-08T03:40:51.634Z,97884.41
2019-06-08T03:43:18.463Z,97889.15
2019-06-08T03:45:45.480Z,97892.30
2019-06-08T03:48:12.440Z,97903.09
2019-06-08T03:50:40.236Z,97915.98
2019-06-08T03:53:07.947Z,97919.16
2019-06-08T03:55:35.425Z,97925.98
2019-06-08T03:58:02.361Z,97924.67
2019-06-08T04:00:29.178Z,97910.72
2019-06-08T04:02:56.327Z,97916.50
2019-06-08T04:05:23.266Z,97916.50
2019-06-08T04:07:50.522Z,97922.56
2019-06-08T04:10:17.547Z,97921.24
2019-06-08T04:12:46.141Z,97934.67
2019-06-08T04:15:13.009Z,97934.16
2019-06-08T04:17:39.896Z,97943.09
2019-06-08T04:20:11.638Z,97943.88
2019-06-08T04:22:35.301Z,97953.09
2019-06-08T04:25:02.210Z,97950.47
2019-06-08T04:27:29.013Z,97954.14
2019-06-08T04:29:55.868Z,97945.72
2019-06-08T04:32:22.789Z,97949.91
2019-06-08T04:34:50.066Z,97958.87
2019-06-08T04:37:17.194Z,97955.97
2019-06-08T04:39:46.808Z,97960.19
2019-06-08T04:42:13.513Z,97954.93
2019-06-08T04:44:40.586Z,97956.77
2019-06-08T04:47:07.439Z,97971.23
2019-06-08T04:49:34.249Z,97975.46
2019-06-08T04:52:01.118Z,97971.23
2019-06-08T04:54:28.061Z,97986.23
2019-06-08T04:56:54.913Z,97988.34
2019-06-08T04:59:21.752Z,97990.97
2019-06-08T05:01:49.202Z,97997.55
2019-06-08T05:04:16.390Z,98007.04
2019-06-08T05:06:45.045Z,98009.39
2019-06-08T05:09:12.017Z,98014.94
2019-06-08T05:11:39.145Z,98023.34
2019-06-08T05:14:06.130Z,98021.52
2019-06-08T05:16:32.995Z,98027.30
2019-06-08T05:18:59.815Z,98037.02
2019-06-08T05:21:26.619Z,98042.56
2019-06-08T05:23:58.704Z,98048.87
2019-06-08T05:26:21.979Z,98061.50
2019-06-08T05:28:49.532Z,98058.08
2019-06-08T05:31:16.467Z,98060.70
2019-06-08T05:33:43.439Z,98072.03
2019-06-08T05:36:10.807Z,98070.44
2019-06-08T05:38:37.689Z,98076.22
2019-06-08T05:41:04.466Z,98074.38
2019-06-08T05:43:31.249Z,98086.74
2019-06-08T05:45:58.072Z,98080.16
2019-06-08T05:48:24.941Z,98082.52
2019-06-08T05:51:03.374Z,98087.78
2019-06-08T05:53:20.306Z,98088.05
2019-06-08T05:55:47.996Z,98093.84
2019-06-08T05:58:15.055Z,98097.79
2019-06-08T06:00:42.224Z,98104.64
2019-06-08T06:03:09.057Z,98103.84
2019-06-08T06:05:35.820Z,98105.16
2019-06-08T06:08:02.723Z,98112.53
2019-06-08T06:10:29.668Z,98117.80
2019-06-08T06:12:56.465Z,98122.27
2019-06-08T06:15:23.265Z,98122.55
2019-06-08T06:17:51.427Z,98123.86
2019-06-08T06:20:18.432Z,98124.14
2019-06-08T06:22:45.834Z,98132.03
2019-06-08T06:25:13.223Z,98125.97
2019-06-08T06:27:41.283Z,98127.28
2019-06-08T06:30:08.507Z,98136.50
2019-06-08T06:32:35.298Z,98146.23
2019-06-08T06:35:02.087Z,98158.34
2019-06-08T06:37:28.863Z,98145.71
2019-06-08T06:39:55.658Z,98153.33
2019-06-08T06:42:24.708Z,98154.13
2019-06-08T06:44:52.321Z,98155.44
2019-06-08T06:47:19.319Z,98159.14
2019-06-08T06:49:46.463Z,98166.56
2019-06-08T06:52:13.273Z,98171.08
2019-06-08T06:54:40.071Z,98163.58
2019-06-08T06:57:06.836Z,98169.80
2019-06-08T06:59:33.624Z,98175.70
2019-06-08T07:02:00.408Z,98174.06
2019-06-08T07:04:27.172Z,98176.48
2019-06-08T07:06:54.461Z,98179.50
2019-06-08T07:09:21.399Z,98175.36
2019-06-08T07:11:48.817Z,98179.79
2019-06-08T07:14:15.658Z,98185.43
2019-06-08T07:16:42.475Z,98184.80
2019-06-08T07:19:09.251Z,98190.03
2019-06-08T07:21:41.856Z,98193.77
2019-06-08T07:24:04.582Z,98195.50
2019-06-08T07:26:31.353Z,98201.59
2019-06-08T07:28:58.939Z,98203.64
2019-06-08T07:31:25.898Z,98207.11
2019-06-08T07:33:53.620Z,98208.24
2019-06-08T07:36:20.583Z,98213.52
2019-06-08T07:38:48.684Z,98211.42
2019-06-08T07:41:15.873Z,98207.73
2019-06-08T07:43:42.650Z,98209.97
2019-06-08T07:46:09.411Z,98212.97
2019-06-08T07:48:36.218Z,98209.42
2019-06-08T07:51:03.004Z,98214.42
2019-06-08T07:53:29.876Z,98210.87
2019-06-08T07:55:56.654Z,98213.12
2019-06-08T07:58:23.466Z,98219.27
2019-06-08T08:00:52.549Z,98217.78
2019-06-08T08:03:18.792Z,98220.27
2019-06-08T08:05:45.580Z,98212.44
2019-06-08T08:08:12.344Z,98215.63
2019-06-08T08:10:39.141Z,98207.30
2019-06-08T08:13:05.910Z,98217.57
2019-06-08T08:15:32.737Z,98215.02
2019-06-08T08:17:59.673Z,98243.97
2019-06-08T08:20:26.591Z,98219.59
2019-06-08T08:22:57.890Z,98219.88
2019-06-08T08:25:21.906Z,98221.75
2019-06-08T08:27:50.229Z,98221.52
2019-06-08T08:30:17.299Z,98223.92
2019-06-08T08:32:47.964Z,98223.72
2019-06-08T08:35:14.197Z,98221.66
2019-06-08T08:37:40.992Z,98219.37
2019-06-08T08:40:07.950Z,98225.75
2019-06-08T08:42:34.964Z,98208.95
2019-06-08T08:45:05.007Z,98161.29
2019-06-08T08:47:30.754Z,98224.67
2019-06-08T08:49:59.159Z,98224.95
2019-06-08T08:52:36.947Z,98224.44
2019-06-08T08:54:57.562Z,98223.13
2019-06-08T08:57:23.762Z,98223.41
2019-06-08T08:59:53.551Z,98220.78
2019-06-08T09:02:21.347Z,98228.66
2019-06-08T09:04:47.786Z,98219.75
2019-06-08T09:07:14.619Z,98219.23
2019-06-08T09:09:41.428Z,98228.75
2019-06-08T09:12:08.462Z,98225.32
2019-06-08T09:14:35.264Z,98229.55
2019-06-08T09:17:03.439Z,98232.45
2019-06-08T09:19:30.417Z,98233.25
2019-06-08T09:22:00.222Z,98227.20
2019-06-08T09:24:25.781Z,98226.17
2019-06-08T09:26:54.114Z,98229.59
2019-06-08T09:29:21.064Z,98226.45
2019-06-08T09:31:49.063Z,98231.70
2019-06-08T09:34:19.257Z,98232.51
2019-06-08T09:36:44.549Z,98237.53
2019-06-08T09:39:13.094Z,98231.48
2019-06-08T09:41:39.835Z,98239.13
2019-06-08T09:44:10.614Z,98234.39
2019-06-08T09:46:35.206Z,98239.92
2019-06-08T09:49:06.294Z,98244.67
2019-06-08T09:51:30.492Z,98249.92
2019-06-08T09:54:00.845Z,98248.89
2019-06-08T09:56:28.023Z,98249.69
2019-06-08T09:58:55.981Z,98247.86
2019-06-08T10:01:22.796Z,98250.48
2019-06-08T10:03:49.576Z,98251.29
2019-06-08T10:06:18.274Z,98242.61
2019-06-08T10:08:44.842Z,98250.26
2019-06-08T10:11:11.619Z,98251.86
2019-06-08T10:13:39.812Z,98251.37
2019-06-08T10:16:10.062Z,98244.80
2019-06-08T10:18:35.409Z,98247.43
2019-06-08T10:21:03.491Z,98254.00
2019-06-08T10:23:34.364Z,98255.08
2019-06-08T10:26:01.325Z,98258.51
2019-06-08T10:28:28.918Z,98253.77
2019-06-08T10:30:58.258Z,98266.67
2019-06-08T10:33:24.442Z,98261.70
2019-06-08T10:35:51.205Z,98167.09
2019-06-08T10:38:18.289Z,98259.08
2019-06-08T10:41:14.822Z,98255.93
2019-06-08T10:43:32.407Z,98252.27
2019-06-08T10:46:05.131Z,98247.02
2019-06-08T10:48:27.766Z,98250.44
2019-06-08T10:50:54.610Z,98247.53
2019-06-08T10:53:21.400Z,98247.30
2019-06-08T10:55:48.322Z,98247.81
2019-06-08T10:58:15.123Z,98249.41
2019-06-08T11:00:41.887Z,98249.41
2019-06-08T11:03:10.593Z,98245.98
2019-06-08T11:05:37.172Z,98249.41
2019-06-08T11:08:05.835Z,98249.97
2019-06-08T11:10:32.502Z,98238.38
2019-06-08T11:13:05.261Z,98237.86
2019-06-08T11:15:29.803Z,98243.41
2019-06-08T11:18:00.377Z,98239.17
2019-06-08T11:20:24.888Z,98242.38
2019-06-08T11:22:51.723Z,98234.48
2019-06-08T11:25:19.886Z,98244.20
2019-06-08T11:27:47.498Z,98245.00
2019-06-08T11:30:23.588Z,98231.06
2019-06-08T11:32:43.018Z,98229.23
2019-06-08T11:35:12.405Z,98223.45
2019-06-08T11:37:40.639Z,98219.52
2019-06-08T11:40:09.480Z,98222.14
2019-06-08T11:42:35.414Z,98218.48
2019-06-08T11:45:02.350Z,98226.08
2019-06-08T11:47:31.045Z,98218.20
2019-06-08T11:49:57.760Z,98215.85
2019-06-08T11:52:25.883Z,98217.69
2019-06-08T11:54:53.095Z,98220.59
2019-06-08T11:57:19.870Z,98220.59
2019-06-08T11:59:48.514Z,98219.28
2019-06-08T12:02:15.170Z,98214.02
2019-06-08T12:04:41.976Z,98217.48
2019-06-08T12:07:09.530Z,98219.28
2019-06-08T12:09:37.256Z,98221.42
2019-06-08T12:12:04.509Z,98212.50
2019-06-08T12:14:33.614Z,98215.94
2019-06-08T12:17:01.346Z,98216.16
2019-06-08T12:19:31.408Z,98215.13
2019-06-08T12:21:57.989Z,98217.81
2019-06-08T12:24:40.526Z,98216.95
2019-06-08T12:27:00.290Z,98221.11
2019-06-08T12:29:22.020Z,98199.66
2019-06-08T12:31:48.801Z,98205.53
2019-06-08T12:34:17.866Z,98198.02
2019-06-08T12:36:44.106Z,98189.48
2019-06-08T12:39:11.838Z,98195.95
2019-06-08T12:41:38.859Z,98188.67
2019-06-08T12:44:07.076Z,98186.66
2019-06-08T12:46:34.131Z,98185.94
2019-06-08T12:49:00.896Z,98194.90
2019-06-08T12:51:28.103Z,98188.61
2019-06-08T12:53:55.037Z,98182.84
2019-06-08T12:56:24.002Z,98183.15
2019-06-08T12:58:50.590Z,98177.89
2019-06-08T13:01:17.385Z,98183.43
2019-06-08T13:03:44.431Z,98195.08
2019-06-08T13:06:12.519Z,98203.52
2019-06-08T13:08:39.722Z,98200.38
2019-06-08T13:11:09.050Z,98199.58
2019-06-08T13:13:35.064Z,98204.32
2019-06-08T13:16:01.929Z,98196.16
2019-06-08T13:18:28.710Z,98196.44
2019-06-08T13:20:55.603Z,98186.95
2019-06-08T13:23:22.473Z,98191.97
2019-06-08T13:25:49.289Z,98191.45
2019-06-08T13:28:19.416Z,98194.09
2019-06-08T13:30:44.663Z,98193.08
2019-06-08T13:33:12.012Z,98193.60
2019-06-08T13:35:39.656Z,98185.71
2019-06-08T13:38:08.752Z,98188.91
2019-06-08T13:40:37.682Z,98193.36
2019-06-08T13:43:03.685Z,98192.33
2019-06-08T13:45:30.474Z,98188.39
2019-06-08T13:47:58.701Z,98191.06
2019-06-08T13:50:25.631Z,98190.31
2019-06-08T13:52:52.436Z,98087.25
2019-06-08T13:55:35.987Z,98178.87
2019-06-08T13:57:49.144Z,98183.90
2019-06-08T14:00:18.306Z,98183.70
2019-06-08T14:02:44.680Z,98183.94
2019-06-08T14:05:11.533Z,98184.46
2019-06-08T14:07:38.319Z,98178.21
2019-06-08T14:10:05.126Z,98176.94
2019-06-08T14:12:31.883Z,98182.44
2019-06-08T14:14:58.767Z,98177.93
2019-06-08T14:17:27.072Z,98176.09
2019-06-08T14:19:54.052Z,98172.67
2019-06-08T14:22:22.981Z,98165.53
2019-06-08T14:24:49.455Z,98176.85
2019-06-08T14:27:17.125Z,98176.05
2019-06-08T14:29:44.006Z,98169.20
2019-06-08T14:32:10.824Z,98173.66
2019-06-08T14:34:38.643Z,98169.20
2019-06-08T14:37:05.747Z,98166.05
2019-06-08T14:39:32.524Z,98168.16
2019-06-08T14:41:59.380Z,98154.22
2019-06-08T14:44:31.341Z,98168.16
2019-06-08T14:46:54.704Z,98161.31
2019-06-08T14:49:26.492Z,98162.11
2019-06-08T14:51:51.702Z,98156.33
2019-06-08T14:54:24.388Z,98160.80
2019-06-08T14:56:47.800Z,98160.27
2019-06-08T14:59:14.595Z,98166.33
2019-06-08T15:01:41.374Z,98167.41
2019-06-08T15:04:08.940Z,98158.72
2019-06-08T15:06:38.063Z,98160.27
2019-06-08T15:09:05.069Z,98151.07
2019-06-08T15:11:34.859Z,98151.59
2019-06-08T15:14:00.327Z,98149.47
2019-06-08T15:16:30.528Z,98142.10
2019-06-08T15:19:00.116Z,98136.84
2019-06-08T15:21:25.575Z,98136.84
2019-06-08T15:23:52.712Z,98136.05
2019-06-08T15:26:27.075Z,98140.27
2019-06-08T15:28:48.574Z,98135.53
2019-06-08T15:31:17.916Z,98127.40
2019-06-08T15:33:43.967Z,98126.56
2019-06-08T15:36:10.742Z,97996.95
2019-06-08T15:38:38.062Z,98123.41
2019-06-08T15:41:04.980Z,98119.75
2019-06-08T15:43:36.807Z,98125.80
2019-06-08T15:46:00.294Z,98123.41
2019-06-08T15:48:29.390Z,98126.56
2019-06-08T15:50:58.216Z,98119.47
2019-06-08T15:53:24.371Z,98125.01
2019-06-08T15:55:51.573Z,98121.06
2019-06-08T15:58:18.582Z,98119.98
2019-06-08T16:00:45.363Z,98121.58
2019-06-08T16:03:12.124Z,98120.55
2019-06-08T16:05:38.990Z,98118.95
2019-06-08T16:08:05.772Z,98114.48
2019-06-08T16:10:32.563Z,98108.16
2019-06-08T16:12:59.677Z,98109.23
2019-06-08T16:15:26.880Z,98110.55
2019-06-08T16:17:53.700Z,98109.23
2019-06-08T16:20:20.492Z,98106.08
2019-06-08T16:22:47.343Z,98107.91
2019-06-08T16:25:14.111Z,98106.08
2019-06-08T16:27:40.898Z,98105.28
2019-06-08T16:30:09.441Z,98102.66
2019-06-08T16:32:36.158Z,98108.71
2019-06-08T16:35:02.945Z,98109.23
2019-06-08T16:37:29.718Z,98107.39
2019-06-08T16:39:56.490Z,98109.23
2019-06-08T16:42:23.313Z,98113.45
2019-06-08T16:44:50.113Z,98110.30
2019-06-08T16:47:16.897Z,98115.28
2019-06-08T16:49:43.670Z,98111.34
2019-06-08T16:52:10.456Z,98113.45
2019-06-08T16:54:37.551Z,98115.28
2019-06-08T16:57:09.948Z,98113.97
2019-06-08T16:59:32.849Z,98116.88
2019-06-08T17:01:59.678Z,98119.52
2019-06-08T17:04:26.474Z,98120.83
2019-06-08T17:06:53.259Z,98120.83
2019-06-08T17:09:20.291Z,98120.83
2019-06-08T17:11:47.067Z,98120.83
2019-06-08T17:14:13.872Z,98123.45
2019-06-08T17:16:40.695Z,98118.71
2019-06-08T17:19:07.492Z,98120.03
2019-06-08T17:21:34.283Z,98117.40
2019-06-08T17:24:01.078Z,98114.25
2019-06-08T17:26:27.837Z,98114.77
2019-06-08T17:28:54.600Z,98114.25
2019-06-08T17:31:21.378Z,98116.08
2019-06-08T17:33:48.177Z,98120.31
2019-06-08T17:36:14.957Z,98119.52
2019-06-08T17:38:41.734Z,98116.88
2019-06-08T17:41:08.515Z,98117.67
2019-06-08T17:43:36.161Z,98113.73
2019-06-08T17:46:02.981Z,98108.99
2019-06-08T17:48:29.775Z,98111.10
2019-06-08T17:50:56.573Z,98111.90
2019-06-08T17:53:23.348Z,98108.47
2019-06-08T17:55:50.194Z,98102.42
2019-06-08T17:58:21.067Z,98102.18
2019-06-08T18:00:45.712Z,98103.21
2019-06-08T18:03:12.512Z,98099.78
2019-06-08T18:05:42.296Z,98102.14
2019-06-08T18:08:07.921Z,98099.27
2019-06-08T18:10:36.470Z,98105.84
2019-06-08T18:13:03.368Z,98105.05
2019-06-08T18:15:30.166Z,98109.78
2019-06-08T18:17:57.696Z,97953.76
2019-06-08T18:20:24.614Z,98107.95
2019-06-08T18:22:51.387Z,98104.81
2019-06-08T18:25:18.179Z,98110.30
2019-06-08T18:28:02.711Z,98106.64
2019-06-08T18:30:13.440Z,98117.16
2019-06-08T18:32:40.933Z,98111.10
2019-06-08T18:35:08.947Z,98111.10
2019-06-08T18:37:38.121Z,98109.27
2019-06-08T18:40:04.248Z,98113.22
2019-06-08T18:42:31.109Z,98113.25
2019-06-08T18:44:58.363Z,98123.58
2019-06-08T18:47:27.270Z,98118.31
2019-06-08T18:49:53.788Z,98115.52
2019-06-08T18:52:20.547Z,98115.54
2019-06-08T18:54:49.596Z,98114.62
2019-06-08T18:57:17.647Z,98122.06
2019-06-08T18:59:50.577Z,98117.66
2019-06-08T19:02:12.967Z,98116.63
2019-06-08T19:04:40.641Z,98119.11
2019-06-08T19:07:08.511Z,98125.52
2019-06-08T19:09:37.502Z,98125.84
2019-06-08T19:12:03.982Z,98134.53
2019-06-08T19:14:30.858Z,98129.03
2019-06-08T19:16:58.238Z,98138.00
2019-06-08T19:19:25.117Z,98136.17
2019-06-08T19:21:51.920Z,98140.11
2019-06-08T19:24:19.095Z,98135.65
2019-06-08T19:26:47.394Z,98139.08
2019-06-08T19:29:14.586Z,98137.77
2019-06-08T19:31:43.762Z,98142.78
2019-06-08T19:34:10.250Z,98149.08
2019-06-08T19:36:39.771Z,98145.93
2019-06-08T19:39:07.161Z,98152.27
2019-06-08T19:41:34.098Z,98150.16
2019-06-08T19:44:00.899Z,98146.48
2019-06-08T19:46:27.727Z,98151.75
2019-06-08T19:48:55.604Z,98155.69
2019-06-08T19:51:23.202Z,98160.47
2019-06-08T19:53:53.046Z,98152.58
2019-06-08T19:56:21.166Z,98161.78
2019-06-08T19:58:56.037Z,98163.38
2019-06-08T20:01:18.083Z,98157.84
2019-06-08T20:03:44.792Z,98159.16
2019-06-08T20:06:14.292Z,98160.47
2019-06-08T20:08:40.960Z,98169.95
2019-06-08T20:11:08.405Z,98166.01
2019-06-08T20:13:37.465Z,98166.01
2019-06-08T20:16:03.957Z,98167.84
2019-06-08T20:18:30.956Z,98171.83
2019-06-08T20:20:58.692Z,98174.17
2019-06-08T20:23:27.613Z,98169.72
2019-06-08T20:25:54.191Z,98173.14
2019-06-08T20:28:21.000Z,98170.75
2019-06-08T20:30:48.474Z,98169.72
2019-06-08T20:33:15.333Z,98168.40
2019-06-08T20:35:43.497Z,98169.20
2019-06-08T20:38:10.425Z,98171.83
2019-06-08T20:40:38.365Z,98174.46
2019-06-08T20:43:07.179Z,98177.61
2019-06-08T20:45:33.836Z,98169.72
2019-06-08T20:48:00.608Z,98171.31
2019-06-08T20:50:27.407Z,98176.57
2019-06-08T20:52:54.197Z,98181.03
2019-06-08T20:55:21.044Z,98184.46
2019-06-08T20:57:49.412Z,98176.57
2019-06-08T21:00:16.405Z,98181.83
2019-06-08T21:02:43.903Z,98182.11
2019-06-08T21:05:10.736Z,98178.41
2019-06-08T21:07:37.533Z,98173.42
2019-06-08T21:10:04.353Z,98167.64
2019-06-08T21:12:31.252Z,98177.89
2019-06-08T21:14:58.040Z,98178.69
2019-06-08T21:17:24.815Z,98179.20
2019-06-08T21:19:53.030Z,98180.52
2019-06-08T21:22:20.031Z,98177.37
2019-06-08T21:24:50.035Z,98180.52
2019-06-08T21:27:17.273Z,98188.92
2019-06-08T21:29:49.155Z,98197.09
2019-06-08T21:32:12.428Z,98185.78
2019-06-08T21:34:39.261Z,98182.62
2019-06-08T21:37:06.059Z,98191.83
2019-06-08T21:39:35.911Z,98191.83
2019-06-08T21:42:02.896Z,98186.58
2019-06-08T21:44:29.902Z,98191.31
2019-06-08T21:47:00.789Z,98193.95
2019-06-08T21:49:27.527Z,98194.74
2019-06-08T21:51:54.521Z,98197.89
2019-06-08T21:54:21.351Z,98199.20
2019-06-08T21:56:50.119Z,98201.31
2019-06-08T21:59:18.193Z,98191.31
2019-06-08T22:01:45.267Z,98197.89
2019-06-08T22:04:12.057Z,98203.16
2019-06-08T22:06:38.896Z,98208.41
2019-06-08T22:09:07.036Z,98200.80
2019-06-08T22:11:34.141Z,98203.95
2019-06-08T22:14:01.020Z,98201.31
2019-06-08T22:16:27.943Z,98202.91
2019-06-08T22:18:54.933Z,98197.38
2019-06-08T22:21:21.770Z,98135.83
2019-06-08T22:23:48.694Z,98198.69
2019-06-08T22:26:17.643Z,98191.59
2019-06-08T22:28:44.109Z,98198.69
2019-06-08T22:31:10.906Z,98200.80
2019-06-08T22:33:38.068Z,98202.12
2019-06-08T22:36:04.978Z,98204.23
2019-06-08T22:38:31.880Z,98200.80
2019-06-08T22:41:00.004Z,98200.80
2019-06-08T22:43:27.271Z,98200.00
2019-06-08T22:45:54.479Z,98203.43
2019-06-08T22:48:21.397Z,98200.80
2019-06-08T22:50:48.210Z,98205.55
2019-06-08T22:53:15.008Z,98205.03
2019-06-08T22:55:41.829Z,98199.48
2019-06-08T22:58:08.647Z,98206.06
2019-06-08T23:00:50.826Z,98212.12
2019-06-08T23:03:05.413Z,98205.55
2019-06-08T23:05:32.600Z,98212.12
2019-06-08T23:08:03.532Z,98208.17
2019-06-08T23:10:28.060Z,98097.16
2019-06-08T23:12:54.856Z,98206.06
2019-06-08T23:15:21.697Z,98207.38
2019-06-08T23:17:48.584Z,98212.64
2019-06-08T23:20:15.429Z,98210.00
2019-06-08T23:22:42.246Z,98218.70
2019-06-08T23:25:09.752Z,98213.95
2019-06-08T23:27:37.986Z,98220.01
2019-06-08T23:30:09.695Z,98216.30
2019-06-08T23:32:33.793Z,98213.16
2019-06-08T23:35:00.764Z,98215.78
2019-06-08T23:37:27.816Z,98213.95
2019-06-08T23:39:54.658Z,98213.16
2019-06-08T23:42:21.473Z,98209.73
2019-06-08T23:44:48.279Z,98215.27
2019-06-08T23:47:15.114Z,98212.12
2019-06-08T23:49:41.977Z,98211.84
2019-06-08T23:52:11.308Z,98214.75
2019-06-08T23:54:37.321Z,98211.32
2019-06-08T23:57:04.895Z,98214.47
2019-06-08T23:59:31.829Z,98213.95
